createdAt,value
2022-08-07T00:00:26.264Z,27.40
2022-08-07T00:02:53.980Z,27.30
2022-08-07T00:05:23.631Z,27.30
2022-08-07T00:08:00.129Z,27.30
2022-08-07T00:10:30.829Z,27.30
2022-08-07T00:13:09.901Z,27.20
2022-08-07T00:15:51.073Z,27.30
2022-08-07T00:18:24.310Z,27.20
2022-08-07T00:20:54.941Z,27.20
2022-08-07T00:23:24.376Z,27.20
2022-08-07T00:26:00.426Z,27.10
2022-08-07T00:28:33.646Z,27.10
2022-08-07T00:31:12.331Z,27.10
2022-08-07T00:33:41.454Z,27.10
2022-08-07T00:36:09.824Z,27.10
2022-08-07T00:38:39.157Z,27.00
2022-08-07T00:41:09.975Z,27.00
2022-08-07T00:44:01.649Z,26.90
2022-08-07T00:46:31.002Z,26.80
2022-08-07T00:49:04.049Z,26.80
2022-08-07T00:51:58.136Z,26.70
2022-08-07T00:54:20.057Z,26.70
2022-08-07T00:56:49.737Z,26.60
2022-08-07T00:59:20.338Z,26.60
2022-08-07T01:02:03.045Z,26.70
2022-08-07T01:04:37.454Z,26.60
2022-08-07T01:07:10.937Z,26.60
2022-08-07T01:10:04.322Z,26.60
2022-08-07T01:12:29.703Z,26.60
2022-08-07T01:15:01.652Z,26.60
2022-08-07T01:17:32.832Z,26.70
2022-08-07T01:20:10.294Z,26.60
2022-08-07T01:22:46.851Z,26.60
2022-08-07T01:25:40.579Z,26.60
2022-08-07T01:28:17.415Z,26.60
2022-08-07T01:30:47.965Z,26.60
2022-08-07T01:33:19.405Z,26.60
2022-08-07T01:35:54.283Z,26.60
2022-08-07T01:38:37.008Z,26.60
2022-08-07T01:41:14.329Z,26.60
2022-08-07T01:43:55.605Z,26.60
2022-08-07T01:46:23.073Z,26.60
2022-08-07T01:48:51.167Z,26.60
2022-08-07T01:52:01.873Z,26.60
2022-08-07T01:54:32.531Z,26.60
2022-08-07T01:57:05.084Z,26.50
2022-08-07T02:00:01.108Z,26.50
2022-08-07T02:03:18.961Z,26.50
2022-08-07T02:05:48.557Z,26.50
2022-08-07T02:08:30.825Z,26.50
2022-08-07T02:11:00.222Z,26.40
2022-08-07T02:13:56.820Z,26.40
2022-08-07T02:16:28.372Z,26.40
2022-08-07T02:19:02.097Z,26.40
2022-08-07T02:21:56.337Z,26.40
2022-08-07T02:24:24.265Z,26.40
2022-08-07T02:26:52.866Z,26.50
2022-08-07T02:29:22.063Z,26.50
2022-08-07T02:31:51.556Z,26.40
2022-08-07T02:34:22.059Z,26.40
2022-08-07T02:36:55.278Z,26.40
2022-08-07T02:39:43.016Z,26.40
2022-08-07T02:42:17.333Z,26.40
2022-08-07T02:44:52.108Z,26.40
2022-08-07T02:47:24.939Z,26.40
2022-08-07T02:50:00.715Z,26.40
2022-08-07T02:52:39.643Z,26.40
2022-08-07T02:55:28.107Z,26.30
2022-08-07T02:58:10.935Z,26.30
2022-08-07T03:00:46.810Z,26.20
2022-08-07T03:03:20.974Z,26.20
2022-08-07T03:05:56.488Z,26.10
2022-08-07T03:08:29.251Z,26.20
2022-08-07T03:11:00.385Z,26.20
2022-08-07T03:13:39.004Z,26.20
2022-08-07T03:16:17.580Z,26.10
2022-08-07T03:18:52.304Z,26.10
2022-08-07T03:21:21.262Z,26.10
2022-08-07T03:24:19.407Z,26.10
2022-08-07T03:26:43.054Z,26.00
2022-08-07T03:29:27.600Z,26.00
2022-08-07T03:31:57.000Z,26.00
2022-08-07T03:34:28.420Z,26.00
2022-08-07T03:37:12.343Z,26.00
2022-08-07T03:39:56.506Z,26.00
2022-08-07T03:42:28.331Z,26.00
2022-08-07T03:44:57.996Z,26.00
2022-08-07T03:47:29.626Z,26.00
2022-08-07T03:50:19.636Z,26.00
2022-08-07T03:52:53.050Z,26.00
2022-08-07T03:55:21.203Z,26.00
2022-08-07T03:58:33.924Z,26.00
2022-08-07T04:00:46.549Z,26.00
2022-08-07T04:03:21.473Z,25.90
2022-08-07T04:05:51.452Z,25.90
2022-08-07T04:08:26.577Z,25.90
2022-08-07T04:12:21.564Z,25.90
2022-08-07T04:14:10.443Z,25.90
2022-08-07T04:16:34.156Z,25.80
2022-08-07T04:19:15.179Z,25.80
2022-08-07T04:22:05.464Z,25.90
2022-08-07T04:24:42.325Z,25.90
2022-08-07T04:27:15.080Z,25.90
2022-08-07T04:30:02.187Z,25.90
2022-08-07T04:32:44.816Z,25.90
2022-08-07T04:35:17.016Z,25.90
2022-08-07T04:38:03.571Z,25.90
2022-08-07T04:40:34.233Z,25.90
2022-08-07T04:43:03.329Z,25.90
2022-08-07T04:46:06.688Z,26.00
2022-08-07T04:49:07.524Z,26.00
2022-08-07T04:52:08.319Z,26.00
2022-08-07T04:54:50.532Z,26.00
2022-08-07T04:58:14.422Z,26.10
2022-08-07T05:00:20.242Z,26.10
2022-08-07T05:03:38.645Z,26.20
2022-08-07T05:06:19.355Z,26.20
2022-08-07T05:09:04.770Z,26.30
2022-08-07T05:11:58.704Z,26.30
2022-08-07T05:14:52.592Z,26.30
2022-08-07T05:17:52.290Z,26.30
2022-08-07T05:20:25.753Z,26.30
2022-08-07T05:23:02.058Z,26.40
2022-08-07T05:26:11.124Z,26.50
2022-08-07T05:28:23.341Z,26.50
2022-08-07T05:30:57.459Z,26.60
2022-08-07T05:33:30.638Z,26.60
2022-08-07T05:36:04.777Z,26.70
2022-08-07T05:38:58.347Z,26.80
2022-08-07T05:41:22.205Z,26.90
2022-08-07T05:44:08.415Z,27.00
2022-08-07T05:46:43.084Z,27.10
2022-08-07T05:49:12.959Z,27.30
2022-08-07T05:51:46.531Z,27.30
2022-08-07T05:54:30.796Z,27.50
2022-08-07T05:57:06.905Z,27.70
2022-08-07T05:59:57.324Z,27.80
2022-08-07T06:02:30.706Z,28.00
2022-08-07T06:05:08.036Z,28.10
2022-08-07T06:08:13.110Z,28.30
2022-08-07T06:10:29.539Z,28.40
2022-08-07T06:12:57.264Z,28.50
2022-08-07T06:15:42.342Z,28.60
2022-08-07T06:18:17.325Z,28.70
2022-08-07T06:20:50.587Z,28.80
2022-08-07T06:24:38.095Z,29.00
2022-08-07T06:26:27.510Z,29.10
2022-08-07T06:29:01.436Z,29.20
2022-08-07T06:31:46.809Z,29.30
2022-08-07T06:34:23.888Z,29.50
2022-08-07T06:36:57.218Z,29.60
2022-08-07T06:40:12.913Z,29.70
2022-08-07T06:42:34.962Z,29.90
2022-08-07T06:45:17.952Z,30.10
2022-08-07T06:47:58.609Z,30.20
2022-08-07T06:50:36.584Z,30.20
2022-08-07T06:53:49.163Z,30.40
2022-08-07T06:56:00.841Z,30.50
2022-08-07T06:58:32.257Z,30.70
2022-08-07T07:01:08.718Z,30.70
2022-08-07T07:03:48.605Z,30.90
2022-08-07T07:06:26.087Z,31.00
2022-08-07T07:08:55.165Z,31.10
2022-08-07T07:12:07.967Z,31.00
2022-08-07T07:14:15.153Z,30.80
2022-08-07T07:16:50.642Z,30.80
2022-08-07T07:19:56.939Z,30.90
2022-08-07T07:22:35.688Z,30.90
2022-08-07T07:26:31.304Z,31.00
2022-08-07T07:28:29.665Z,31.20
2022-08-07T07:31:07.206Z,31.30
2022-08-07T07:33:36.428Z,31.30
2022-08-07T07:36:13.476Z,31.30
2022-08-07T07:38:46.155Z,31.40
2022-08-07T07:41:17.806Z,31.40
2022-08-07T07:44:14.475Z,31.60
2022-08-07T07:46:54.734Z,31.70
2022-08-07T07:50:35.520Z,31.70
2022-08-07T07:52:17.211Z,31.70
2022-08-07T07:54:51.038Z,31.70
2022-08-07T07:57:43.926Z,31.90
2022-08-07T08:00:12.107Z,32.00
2022-08-07T08:03:05.079Z,32.10
2022-08-07T08:05:43.203Z,32.40
2022-08-07T08:08:34.624Z,32.60
2022-08-07T08:11:16.526Z,32.60
2022-08-07T08:13:54.548Z,32.80
2022-08-07T08:16:29.621Z,32.80
2022-08-07T08:19:09.561Z,32.90
2022-08-07T08:22:07.738Z,33.00
2022-08-07T08:25:24.585Z,33.10
2022-08-07T08:28:03.751Z,33.30
2022-08-07T08:30:34.588Z,33.50
2022-08-07T08:33:05.564Z,33.60
2022-08-07T08:35:47.031Z,33.60
2022-08-07T08:38:20.050Z,33.60
2022-08-07T08:40:58.051Z,33.80
2022-08-07T08:43:42.762Z,33.70
2022-08-07T08:46:28.949Z,33.70
2022-08-07T08:49:32.736Z,33.90
2022-08-07T08:52:14.239Z,33.80
2022-08-07T08:55:01.075Z,33.90
2022-08-07T08:57:58.986Z,33.60
2022-08-07T09:00:32.667Z,33.60
2022-08-07T09:03:47.465Z,33.50
2022-08-07T09:06:40.410Z,33.50
2022-08-07T09:09:36.502Z,33.70
2022-08-07T09:12:30.860Z,33.80
2022-08-07T09:16:23.616Z,33.80
2022-08-07T09:18:23.580Z,33.70
2022-08-07T09:21:34.090Z,33.80
2022-08-07T09:24:59.347Z,33.70
2022-08-07T09:28:00.268Z,33.50
2022-08-07T09:30:41.753Z,33.40
2022-08-07T09:33:52.424Z,33.50
2022-08-07T09:36:37.049Z,33.20
2022-08-07T09:39:54.190Z,33.30
2022-08-07T09:43:10.827Z,33.10
2022-08-07T09:47:42.357Z,32.90
2022-08-07T09:50:01.531Z,32.80
2022-08-07T09:52:33.773Z,32.80
2022-08-07T09:55:29.775Z,32.80
2022-08-07T09:58:32.491Z,32.90
2022-08-07T10:01:14.882Z,32.90
2022-08-07T10:04:28.351Z,33.00
2022-08-07T10:07:25.817Z,33.30
2022-08-07T10:10:21.459Z,33.20
2022-08-07T10:13:54.919Z,33.00
2022-08-07T10:16:31.602Z,33.00
2022-08-07T10:19:22.516Z,33.10
2022-08-07T10:22:24.911Z,33.20
2022-08-07T10:25:42.256Z,33.30
2022-08-07T10:28:33.013Z,33.30
2022-08-07T10:31:31.444Z,33.30
2022-08-07T10:34:37.557Z,33.40
2022-08-07T10:37:59.978Z,33.40
2022-08-07T10:40:30.393Z,33.30
2022-08-07T10:43:14.419Z,33.40
2022-08-07T10:45:57.839Z,33.60
2022-08-07T10:48:40.087Z,33.50
2022-08-07T10:51:57.728Z,33.50
2022-08-07T10:54:53.105Z,33.60
2022-08-07T10:57:58.708Z,33.60
2022-08-07T11:00:39.154Z,33.80
2022-08-07T11:03:21.605Z,34.00
2022-08-07T11:06:04.857Z,34.20
2022-08-07T11:09:03.097Z,34.50
2022-08-07T11:11:51.916Z,34.80
2022-08-07T11:14:44.284Z,35.20
2022-08-07T11:17:45.224Z,35.60
2022-08-07T11:20:24.500Z,36.30
2022-08-07T11:23:01.844Z,36.70
2022-08-07T11:25:51.693Z,36.30
2022-08-07T11:28:30.285Z,36.80
2022-08-07T11:31:45.056Z,37.10
2022-08-07T11:34:37.121Z,37.60
2022-08-07T11:37:38.362Z,37.80
2022-08-07T11:40:56.411Z,38.50
2022-08-07T11:44:11.062Z,38.10
2022-08-07T11:47:01.183Z,37.80
2022-08-07T11:50:18.714Z,37.30
2022-08-07T11:52:29.070Z,36.40
2022-08-07T11:56:08.469Z,35.70
2022-08-07T11:58:38.282Z,35.90
2022-08-07T12:01:59.258Z,36.50
2022-08-07T12:04:40.910Z,37.50
2022-08-07T12:07:26.984Z,37.60
2022-08-07T12:10:05.877Z,37.40
2022-08-07T12:12:41.376Z,37.20
2022-08-07T12:16:05.185Z,36.80
2022-08-07T12:18:38.238Z,36.60
2022-08-07T12:21:56.051Z,37.00
2022-08-07T12:24:37.447Z,37.90
2022-08-07T12:27:13.245Z,38.30
2022-08-07T12:29:57.438Z,37.80
2022-08-07T12:32:34.647Z,37.60
2022-08-07T12:35:09.490Z,38.20
2022-08-07T12:38:12.454Z,38.10
2022-08-07T12:40:50.415Z,38.20
2022-08-07T12:44:02.861Z,37.50
2022-08-07T12:46:55.636Z,36.40
2022-08-07T12:49:53.283Z,36.00
2022-08-07T12:52:41.806Z,35.40
2022-08-07T12:55:24.938Z,34.70
2022-08-07T12:58:13.565Z,33.80
2022-08-07T13:01:02.079Z,34.10
2022-08-07T13:04:05.018Z,34.80
2022-08-07T13:07:01.714Z,35.10
2022-08-07T13:10:21.959Z,35.60
2022-08-07T13:13:02.778Z,36.50
2022-08-07T13:16:07.515Z,37.60
2022-08-07T13:18:58.670Z,37.80
2022-08-07T13:21:50.207Z,38.20
2022-08-07T13:24:52.444Z,38.90
2022-08-07T13:28:11.237Z,38.50
2022-08-07T13:30:41.343Z,37.70
2022-08-07T13:34:30.740Z,37.40
2022-08-07T13:36:48.696Z,37.20
2022-08-07T13:40:36.460Z,36.60
2022-08-07T13:42:42.929Z,36.00
2022-08-07T13:46:07.114Z,35.70
2022-08-07T13:48:04.300Z,35.60
2022-08-07T13:50:44.992Z,35.50
2022-08-07T13:53:26.649Z,35.20
2022-08-07T13:56:20.124Z,34.70
2022-08-07T13:59:10.355Z,34.10
2022-08-07T14:01:59.380Z,33.90
2022-08-07T14:04:38.838Z,33.60
2022-08-07T14:07:21.289Z,33.30
2022-08-07T14:10:02.035Z,33.10
2022-08-07T14:13:03.747Z,33.00
2022-08-07T14:15:43.513Z,32.90
2022-08-07T14:18:44.494Z,32.70
2022-08-07T14:22:04.283Z,32.50
2022-08-07T14:24:41.647Z,32.50
2022-08-07T14:28:09.419Z,32.50
2022-08-07T14:30:11.061Z,32.50
2022-08-07T14:32:55.384Z,32.40
2022-08-07T14:35:44.642Z,32.60
2022-08-07T14:38:30.211Z,32.80
2022-08-07T14:41:12.429Z,32.70
2022-08-07T14:43:59.470Z,32.80
2022-08-07T14:46:34.632Z,32.60
2022-08-07T14:49:17.247Z,32.50
2022-08-07T14:52:03.639Z,32.50
2022-08-07T14:54:35.726Z,32.60
2022-08-07T14:57:14.441Z,32.50
2022-08-07T15:05:25.651Z,32.60
2022-08-07T15:07:55.646Z,32.60
2022-08-07T15:16:14.628Z,32.40
2022-08-07T15:18:51.726Z,32.30
2022-08-07T15:21:44.300Z,32.30
2022-08-07T15:25:13.620Z,32.30
2022-08-07T15:27:31.128Z,32.20
2022-08-07T15:30:16.542Z,32.00
2022-08-07T15:33:01.474Z,31.90
2022-08-07T15:36:00.414Z,31.90
2022-08-07T15:38:30.931Z,31.90
2022-08-07T15:41:23.806Z,31.80
2022-08-07T15:44:09.407Z,31.80
2022-08-07T15:46:51.682Z,31.80
2022-08-07T15:50:03.936Z,31.70
2022-08-07T15:52:21.879Z,31.70
2022-08-07T15:55:03.841Z,31.60
2022-08-07T15:57:47.836Z,31.60
2022-08-07T16:00:31.680Z,31.50
2022-08-07T16:03:21.503Z,31.50
2022-08-07T16:06:01.127Z,31.60
2022-08-07T16:08:38.699Z,31.60
2022-08-07T16:11:26.458Z,31.50
2022-08-07T16:14:17.191Z,31.40
2022-08-07T16:17:01.104Z,31.40
2022-08-07T16:20:02.858Z,31.30
2022-08-07T16:23:05.463Z,31.10
2022-08-07T16:25:59.173Z,31.00
2022-08-07T16:30:06.257Z,30.90
2022-08-07T16:32:06.464Z,30.80
2022-08-07T16:34:59.538Z,30.80
2022-08-07T16:38:05.600Z,30.90
2022-08-07T16:41:04.317Z,31.00
2022-08-07T16:44:03.811Z,31.00
2022-08-07T16:47:06.747Z,30.90
2022-08-07T16:50:20.116Z,30.80
2022-08-07T16:54:03.165Z,30.70
2022-08-07T16:56:18.824Z,30.60
2022-08-07T16:59:15.226Z,30.60
2022-08-07T17:02:04.818Z,30.50
2022-08-07T17:04:57.536Z,30.30
2022-08-07T17:07:55.994Z,30.30
2022-08-07T17:10:54.946Z,30.10
2022-08-07T17:14:17.395Z,30.10
2022-08-07T17:16:43.712Z,30.10
2022-08-07T17:20:02.457Z,30.10
2022-08-07T17:22:42.677Z,30.10
2022-08-07T17:25:51.816Z,30.00
2022-08-07T17:28:19.982Z,30.00
2022-08-07T17:30:58.126Z,30.00
2022-08-07T17:34:09.670Z,30.00
2022-08-07T17:36:27.295Z,30.00
2022-08-07T17:39:10.479Z,29.90
2022-08-07T17:42:06.746Z,29.80
2022-08-07T17:44:50.677Z,29.70
2022-08-07T17:47:38.392Z,29.60
2022-08-07T17:50:30.509Z,29.60
2022-08-07T17:53:06.158Z,29.50
2022-08-07T17:55:55.803Z,29.40
2022-08-07T17:58:58.512Z,29.30
2022-08-07T18:01:57.759Z,29.30
2022-08-07T18:04:43.531Z,29.30
2022-08-07T18:07:24.478Z,29.30
2022-08-07T18:10:32.702Z,29.30
2022-08-07T18:13:06.903Z,29.30
2022-08-07T18:15:51.829Z,29.30
2022-08-07T18:18:39.813Z,29.30
2022-08-07T18:21:57.825Z,29.30
2022-08-07T18:24:35.432Z,29.20
2022-08-07T18:27:12.161Z,29.20
2022-08-07T18:30:07.717Z,29.20
2022-08-07T18:32:47.023Z,29.20
2022-08-07T18:35:21.147Z,29.20
2022-08-07T18:38:55.037Z,29.20
2022-08-07T18:41:45.897Z,29.20
2022-08-07T18:44:19.605Z,29.20
2022-08-07T18:47:22.439Z,29.20
2022-08-07T18:50:39.060Z,29.20
2022-08-07T18:53:22.571Z,29.20
2022-08-07T18:56:13.042Z,29.10
2022-08-07T18:58:59.322Z,29.10
2022-08-07T19:02:31.923Z,29.00
2022-08-07T19:04:57.388Z,28.90
2022-08-07T19:08:07.304Z,28.90
2022-08-07T19:10:51.752Z,28.90
2022-08-07T19:13:38.021Z,28.90
2022-08-07T19:17:06.607Z,28.80
2022-08-07T19:19:38.004Z,28.80
2022-08-07T19:22:17.779Z,28.80
2022-08-07T19:24:53.196Z,28.70
2022-08-07T19:29:02.924Z,28.70
2022-08-07T19:30:58.294Z,28.70
2022-08-07T19:33:10.331Z,28.60
2022-08-07T19:35:56.896Z,28.60
2022-08-07T19:38:29.437Z,28.70
2022-08-07T19:41:00.944Z,28.60
2022-08-07T19:43:45.520Z,28.70
2022-08-07T19:46:26.821Z,28.70
2022-08-07T19:49:05.674Z,28.70
2022-08-07T19:51:51.945Z,28.70
2022-08-07T19:54:31.355Z,28.70
2022-08-07T19:58:02.615Z,28.60
2022-08-07T20:00:02.101Z,28.60
2022-08-07T20:02:38.980Z,28.70
2022-08-07T20:05:10.039Z,28.70
2022-08-07T20:07:47.106Z,28.70
2022-08-07T20:10:37.931Z,28.70
2022-08-07T20:13:32.067Z,28.70
2022-08-07T20:16:01.936Z,28.70
2022-08-07T20:18:33.687Z,28.70
2022-08-07T20:21:14.730Z,28.70
2022-08-07T20:24:03.831Z,28.70
2022-08-07T20:26:45.141Z,28.70
2022-08-07T20:29:48.801Z,28.70
2022-08-07T20:32:23.035Z,28.70
2022-08-07T20:34:58.578Z,28.70
2022-08-07T20:37:55.641Z,28.70
2022-08-07T20:40:34.740Z,28.70
2022-08-07T20:43:14.909Z,28.70
2022-08-07T20:46:27.531Z,28.70
2022-08-07T20:48:57.983Z,28.70
2022-08-07T20:51:31.268Z,28.60
2022-08-07T20:54:08.748Z,28.60
2022-08-07T20:56:46.240Z,28.60
2022-08-07T21:00:04.796Z,28.60
2022-08-07T21:02:38.470Z,28.60
2022-08-07T21:05:16.563Z,28.50
2022-08-07T21:07:49.516Z,28.50
2022-08-07T21:10:29.681Z,28.50
2022-08-07T21:13:01.165Z,28.50
2022-08-07T21:15:47.613Z,28.50
2022-08-07T21:18:28.098Z,28.50
2022-08-07T21:21:03.792Z,28.40
2022-08-07T21:23:52.512Z,28.40
2022-08-07T21:27:08.333Z,28.40
2022-08-07T21:29:58.096Z,28.40
2022-08-07T21:32:52.203Z,28.40
2022-08-07T21:35:34.460Z,28.30
2022-08-07T21:38:37.761Z,28.30
2022-08-07T21:41:38.189Z,28.30
2022-08-07T21:44:28.626Z,28.30
2022-08-07T21:47:12.328Z,28.30
2022-08-07T21:50:01.416Z,28.30
2022-08-07T21:52:51.579Z,28.20
2022-08-07T21:55:29.859Z,28.20
2022-08-07T21:58:12.064Z,28.20
2022-08-07T22:00:47.564Z,28.20
2022-08-07T22:03:36.877Z,28.20
2022-08-07T22:06:28.839Z,28.30
2022-08-07T22:09:06.873Z,28.30
2022-08-07T22:12:05.050Z,28.20
2022-08-07T22:14:37.320Z,28.20
2022-08-07T22:17:17.694Z,28.10
2022-08-07T22:20:23.559Z,28.10
2022-08-07T22:23:11.677Z,28.00
2022-08-07T22:26:16.371Z,28.00
2022-08-07T22:28:53.094Z,28.00
2022-08-07T22:31:56.407Z,28.10
2022-08-07T22:34:31.672Z,28.10
2022-08-07T22:38:04.459Z,28.20
2022-08-07T22:40:51.686Z,28.20
2022-08-07T22:43:31.624Z,28.30
2022-08-07T22:47:02.851Z,28.30
2022-08-07T22:49:27.826Z,28.30
2022-08-07T22:52:36.874Z,28.30
2022-08-07T22:55:32.374Z,28.30
2022-08-07T22:58:28.857Z,28.30
2022-08-07T23:01:41.995Z,28.20
2022-08-07T23:04:32.670Z,28.10
2022-08-07T23:07:41.324Z,28.10
2022-08-07T23:10:37.966Z,28.10
2022-08-07T23:14:09.108Z,28.00
2022-08-07T23:16:54.881Z,28.00
2022-08-07T23:20:06.049Z,27.90
2022-08-07T23:23:10.564Z,27.90
2022-08-07T23:25:56.784Z,27.80
2022-08-07T23:28:32.793Z,27.80
2022-08-07T23:32:48.745Z,27.70
2022-08-07T23:34:40.652Z,27.70
2022-08-07T23:37:20.311Z,27.70
2022-08-07T23:40:08.346Z,27.60
2022-08-07T23:43:17.019Z,27.60
2022-08-07T23:46:02.698Z,27.60
2022-08-07T23:48:58.954Z,27.60
2022-08-07T23:52:57.982Z,27.50
2022-08-07T23:54:44.115Z,27.60
2022-08-07T23:57:52.271Z,27.50
